Time;durP1;ratioP1;P1;durP2;ratioP2;P2;SDS_P1;SDS_P2;PMS_P1;PMS_P2;Temp;Humidity;BMP_temperature;BMP_pressure;BME280_temperature;BME280_humidity;BME280_pressure;Samples;Min_cycle;Max_cycle;Signal;HPM_P1;HPM_P2
2023/06/30 00:01:28;;;;;;;4.15;3.20;;;23.50;81.10;;;;;;6206416;28;89140;-73
2023/06/30 00:04:32;;;;;;;3.42;3.13;;;23.50;81.10;;;;;;6184439;28;89512;-73
2023/06/30 00:07:34;;;;;;;4.72;3.45;;;23.50;81.10;;;;;;6191544;28;89413;-74
2023/06/30 00:10:36;;;;;;;4.63;3.00;;;23.50;81.10;;;;;;6225453;28;88363;-73
2023/06/30 00:13:38;;;;;;;3.97;3.20;;;23.50;81.10;;;;;;6215823;28;89126;-73
2023/06/30 00:16:40;;;;;;;3.15;2.85;;;23.50;81.10;;;;;;6200179;28;89130;-73
2023/06/30 00:19:43;;;;;;;4.13;3.22;;;23.50;81.10;;;;;;6194014;28;90431;-73
2023/06/30 00:22:45;;;;;;;4.00;3.20;;;23.50;81.10;;;;;;6203343;28;89069;-73
2023/06/30 00:25:48;;;;;;;3.50;3.20;;;23.50;81.10;;;;;;6197752;28;89094;-73
2023/06/30 00:28:50;;;;;;;3.95;3.30;;;23.50;81.10;;;;;;6191193;28;89010;-72
2023/06/30 00:31:52;;;;;;;3.47;3.17;;;23.40;81.00;;;;;;6207358;28;89168;-73
2023/06/30 00:34:55;;;;;;;3.90;3.30;;;23.40;81.00;;;;;;6193185;28;89016;-73
2023/06/30 00:37:57;;;;;;;3.60;3.30;;;23.50;81.10;;;;;;6204343;28;89005;-72
2023/06/30 00:40:59;;;;;;;3.72;3.33;;;23.50;81.10;;;;;;6209651;28;88401;-72
2023/06/30 00:44:01;;;;;;;3.53;3.20;;;23.50;81.20;;;;;;6197910;28;89111;-73
2023/06/30 00:47:04;;;;;;;3.95;3.30;;;23.40;81.10;;;;;;6192191;28;89144;-73
2023/06/30 00:50:08;;;;;;;3.58;3.22;;;23.40;81.10;;;;;;6208344;28;90007;-73
2023/06/30 00:53:10;;;;;;;4.45;3.10;;;23.40;81.10;;;;;;6212163;28;90117;-73
2023/06/30 00:56:12;;;;;;;3.45;3.13;;;23.40;82.00;;;;;;6210403;28;89163;-72
2023/06/30 00:59:14;;;;;;;4.57;3.22;;;23.40;81.10;;;;;;6205408;28;89310;-74
2023/06/30 01:02:20;;;;;;;3.63;3.13;;;23.40;81.20;;;;;;6212784;28;88100;-73
2023/06/30 01:05:29;;;;;;;3.50;3.20;;;23.40;81.20;;;;;;6196407;28;89128;-73
2023/06/30 01:08:35;;;;;;;3.15;2.85;;;23.40;81.30;;;;;;6218212;28;88977;-73
2023/06/30 01:11:39;;;;;;;4.13;3.50;;;23.40;81.30;;;;;;6203375;28;87237;-73
2023/06/30 01:14:43;;;;;;;7.78;4.57;;;23.40;81.30;;;;;;6205813;28;89771;-73
2023/06/30 01:17:48;;;;;;;4.53;3.28;;;23.40;81.30;;;;;;6199898;28;89627;-73
2023/06/30 01:20:52;;;;;;;3.75;3.40;;;23.40;81.30;;;;;;6204562;28;90312;-73
2023/06/30 01:23:59;;;;;;;4.03;3.58;;;23.40;81.30;;;;;;6210219;28;89080;-73
2023/06/30 01:27:02;;;;;;;4.55;3.60;;;23.40;82.20;;;;;;6202405;28;89081;-74
2023/06/30 01:30:05;;;;;;;4.68;3.50;;;23.40;81.40;;;;;;6212748;28;89491;-71
2023/06/30 01:33:07;;;;;;;4.43;3.53;;;23.30;81.30;;;;;;6192485;28;89134;-73
2023/06/30 01:36:10;;;;;;;3.75;3.38;;;23.40;81.50;;;;;;6188027;28;89049;-73
2023/06/30 01:39:13;;;;;;;4.53;3.60;;;23.40;81.50;;;;;;6195936;28;89087;-73
2023/06/30 01:42:15;;;;;;;4.68;3.70;;;23.40;81.60;;;;;;6199086;28;89817;-73
2023/06/30 01:45:18;;;;;;;4.43;3.78;;;23.40;81.60;;;;;;6204890;28;89075;-73
2023/06/30 01:48:21;;;;;;;5.00;3.92;;;23.30;81.60;;;;;;6195875;28;89624;-73
2023/06/30 01:51:24;;;;;;;4.47;3.95;;;23.30;81.80;;;;;;6195832;28;90284;-73
2023/06/30 01:54:26;;;;;;;3.90;3.50;;;23.30;81.70;;;;;;6198143;28;89691;-73
2023/06/30 01:57:28;;;;;;;3.92;3.50;;;23.30;81.80;;;;;;6203482;28;88991;-72
2023/06/30 02:00:30;;;;;;;4.55;3.85;;;23.40;81.80;;;;;;6216849;28;89314;-73
2023/06/30 02:03:32;;;;;;;5.03;4.00;;;23.30;81.70;;;;;;6198587;28;88993;-73
2023/06/30 02:06:35;;;;;;;5.00;4.03;;;23.30;81.60;;;;;;6194374;28;89158;-73
2023/06/30 02:09:37;;;;;;;4.60;3.83;;;23.30;81.60;;;;;;6189842;28;89422;-74
2023/06/30 02:12:39;;;;;;;5.65;4.38;;;23.30;81.60;;;;;;6189985;28;88336;-74
2023/06/30 02:15:41;;;;;;;5.32;4.10;;;23.30;81.60;;;;;;6196863;28;89314;-73
2023/06/30 02:18:43;;;;;;;4.53;4.13;;;23.30;81.60;;;;;;6194168;28;89163;-73
2023/06/30 02:21:47;;;;;;;4.00;3.60;;;23.30;81.60;;;;;;6214640;28;89980;-74
2023/06/30 02:24:48;;;;;;;4.07;3.67;;;23.30;81.60;;;;;;6202895;28;89152;-73
2023/06/30 02:27:52;;;;;;;3.78;3.35;;;23.30;81.50;;;;;;6204385;28;89394;-74
2023/06/30 02:30:55;;;;;;;4.25;3.80;;;23.30;81.50;;;;;;6208820;28;89066;-73
2023/06/30 02:33:57;;;;;;;5.55;3.90;;;23.30;81.60;;;;;;6201710;28;89179;-74
2023/06/30 02:37:00;;;;;;;4.78;4.00;;;23.30;81.60;;;;;;6187804;28;89191;-73
2023/06/30 02:40:03;;;;;;;5.07;4.07;;;23.30;81.60;;;;;;6218196;28;88301;-73
2023/06/30 02:43:05;;;;;;;5.07;3.67;;;23.30;81.80;;;;;;6190036;28;88520;-73
2023/06/30 02:46:06;;;;;;;4.00;3.60;;;23.30;81.80;;;;;;6208300;28;87908;-73
2023/06/30 02:49:08;;;;;;;4.07;3.67;;;23.30;81.80;;;;;;6206107;28;89373;-74
2023/06/30 02:52:12;;;;;;;7.80;4.63;;;23.30;81.90;;;;;;6187249;28;90079;-73
2023/06/30 02:55:14;;;;;;;3.97;3.67;;;23.30;81.90;;;;;;6217585;28;88453;-73
2023/06/30 02:58:16;;;;;;;4.22;3.63;;;23.30;81.90;;;;;;6196699;28;88473;-74
2023/06/30 03:01:20;;;;;;;6.90;4.30;;;23.30;82.00;;;;;;6198072;28;89383;-74
2023/06/30 03:04:22;;;;;;;6.30;4.57;;;23.30;82.00;;;;;;6196252;28;89525;-74
2023/06/30 03:07:26;;;;;;;4.32;3.92;;;23.30;82.00;;;;;;6219787;28;89099;-74
2023/06/30 03:10:28;;;;;;;5.65;4.13;;;23.30;82.00;;;;;;6208913;28;89103;-74
2023/06/30 03:13:30;;;;;;;4.32;3.92;;;23.30;82.10;;;;;;6196970;28;88351;-74
2023/06/30 03:16:32;;;;;;;5.10;4.18;;;23.20;82.00;;;;;;6225335;28;89128;-73
2023/06/30 03:19:34;;;;;;;4.93;3.80;;;23.30;82.10;;;;;;6211113;28;89473;-73
2023/06/30 03:22:38;;;;;;;4.53;3.78;;;23.20;82.00;;;;;;6208974;28;90035;-73
2023/06/30 03:25:40;;;;;;;4.43;3.70;;;23.20;81.90;;;;;;6201409;28;89116;-72
2023/06/30 03:28:42;;;;;;;4.93;3.97;;;23.20;81.90;;;;;;6206568;28;89000;-73
2023/06/30 03:31:44;;;;;;;4.15;3.72;;;23.20;82.00;;;;;;6214011;28;88303;-73
2023/06/30 03:34:45;;;;;;;4.90;3.92;;;23.20;82.00;;;;;;6200344;28;89163;-73
2023/06/30 03:37:49;;;;;;;4.20;3.75;;;23.10;82.00;;;;;;6216307;28;89055;-72
2023/06/30 03:40:51;;;;;;;8.95;4.82;;;23.20;82.20;;;;;;6193142;28;89070;-72
2023/06/30 03:43:53;;;;;;;4.57;3.90;;;23.20;82.20;;;;;;6197394;28;87236;-72
2023/06/30 03:46:55;;;;;;;4.13;3.70;;;23.20;82.20;;;;;;6197804;28;90150;-72
2023/06/30 03:49:57;;;;;;;5.07;3.50;;;23.20;82.20;;;;;;6207135;28;89108;-73
2023/06/30 03:53:00;;;;;;;5.05;3.90;;;23.20;82.20;;;;;;6217877;28;90258;-73
2023/06/30 03:56:02;;;;;;;4.55;3.50;;;23.20;82.20;;;;;;6196244;28;89249;-73
2023/06/30 03:59:04;;;;;;;4.22;3.53;;;23.20;82.20;;;;;;6209812;28;89091;-73
2023/06/30 04:02:06;;;;;;;5.10;3.90;;;23.20;82.20;;;;;;6185762;28;89317;-73
2023/06/30 04:05:08;;;;;;;3.95;3.60;;;23.20;82.20;;;;;;6206618;28;89126;-73
2023/06/30 04:08:12;;;;;;;4.20;3.80;;;23.10;82.10;;;;;;6226566;28;89107;-73
2023/06/30 04:11:14;;;;;;;4.68;3.70;;;23.10;82.20;;;;;;6217897;28;89070;-73
2023/06/30 04:14:16;;;;;;;5.03;4.00;;;23.10;82.30;;;;;;6190642;28;88351;-73
2023/06/30 04:17:18;;;;;;;4.80;3.80;;;23.10;82.30;;;;;;6192602;28;89091;-73
2023/06/30 04:20:20;;;;;;;5.10;3.75;;;23.10;82.50;;;;;;6202290;28;89156;-73
2023/06/30 04:23:23;;;;;;;5.85;4.22;;;23.10;82.50;;;;;;6196651;28;90040;-73
2023/06/30 04:26:25;;;;;;;5.53;4.25;;;23.10;82.60;;;;;;6208738;28;89207;-73
2023/06/30 04:29:27;;;;;;;5.93;4.18;;;23.10;82.70;;;;;;6207389;28;89278;-73
2023/06/30 04:32:29;;;;;;;4.78;3.55;;;23.10;82.80;;;;;;6194279;28;89078;-73
2023/06/30 04:35:31;;;;;;;5.32;4.00;;;23.10;82.90;;;;;;6201598;28;88609;-73
2023/06/30 04:38:35;;;;;;;5.25;3.90;;;23.10;83.20;;;;;;6186397;28;89342;-73
2023/06/30 04:41:37;;;;;;;4.10;3.70;;;23.10;83.20;;;;;;6186708;28;89032;-73
2023/06/30 04:44:39;;;;;;;4.28;3.72;;;23.10;83.20;;;;;;6185925;28;88919;-73
2023/06/30 04:47:43;;;;;;;5.25;4.10;;;23.20;83.50;;;;;;6200714;28;88735;-73
2023/06/30 04:50:45;;;;;;;5.43;4.15;;;23.20;83.70;;;;;;6200827;28;89443;-73
2023/06/30 04:53:48;;;;;;;6.00;4.00;;;23.20;84.10;;;;;;6209645;28;88954;-73
2023/06/30 04:56:51;;;;;;;6.47;4.88;;;23.20;84.20;;;;;;6200850;28;89097;-71
2023/06/30 04:59:55;;;;;;;6.32;4.40;;;23.20;84.10;;;;;;6193066;28;89059;-72
2023/06/30 05:02:57;;;;;;;5.47;4.30;;;23.20;85.00;;;;;;6190438;28;89070;-72
2023/06/30 05:05:59;;;;;;;4.53;4.15;;;23.20;84.90;;;;;;6203009;28;88032;-72
2023/06/30 05:09:02;;;;;;;5.38;3.92;;;23.20;85.00;;;;;;6188186;28;89000;-73
2023/06/30 05:12:05;;;;;;;4.82;4.13;;;23.20;85.60;;;;;;6188187;28;89476;-74
2023/06/30 05:15:08;;;;;;;4.07;3.72;;;23.20;85.90;;;;;;6197488;28;88422;-73
2023/06/30 05:18:10;;;;;;;6.03;4.38;;;23.20;85.90;;;;;;6199170;28;88949;-72
2023/06/30 05:21:12;;;;;;;4.65;3.92;;;23.20;86.20;;;;;;6199999;28;88951;-73
2023/06/30 05:24:16;;;;;;;5.07;3.95;;;23.20;86.20;;;;;;6195974;28;90049;-72
2023/06/30 05:27:18;;;;;;;6.43;4.15;;;23.20;86.00;;;;;;6203794;28;89277;-73
2023/06/30 05:30:20;;;;;;;5.13;3.67;;;23.20;85.90;;;;;;6194815;28;89046;-71
2023/06/30 05:33:22;;;;;;;4.20;3.80;;;23.30;86.00;;;;;;6193903;28;89040;-73
2023/06/30 05:36:24;;;;;;;4.68;4.07;;;23.30;86.40;;;;;;6198308;28;89209;-72
2023/06/30 05:39:27;;;;;;;4.43;3.90;;;23.30;86.30;;;;;;6202756;28;89312;-72
2023/06/30 05:42:29;;;;;;;4.60;4.15;;;23.30;85.90;;;;;;6190376;28;89165;-73
2023/06/30 05:45:31;;;;;;;5.03;3.80;;;23.30;85.80;;;;;;6200485;28;88675;-72
2023/06/30 05:48:33;;;;;;;4.15;3.75;;;23.30;85.60;;;;;;6194730;28;87847;-73
2023/06/30 05:51:36;;;;;;;4.10;3.70;;;23.30;85.50;;;;;;6202445;28;89072;-72
2023/06/30 05:54:39;;;;;;;4.30;3.85;;;23.40;85.60;;;;;;6203615;28;89239;-73
2023/06/30 05:57:41;;;;;;;5.10;4.15;;;23.30;85.60;;;;;;6201937;28;88001;-73
2023/06/30 06:00:43;;;;;;;4.20;3.80;;;23.40;85.50;;;;;;6198666;28;89353;-72
2023/06/30 06:03:45;;;;;;;4.28;3.88;;;23.40;85.40;;;;;;6213478;28;89084;-73
2023/06/30 06:06:47;;;;;;;4.53;3.88;;;23.40;85.70;;;;;;6200160;28;89146;-72
2023/06/30 06:09:51;;;;;;;6.28;3.90;;;23.40;85.50;;;;;;6186015;28;89089;-73
2023/06/30 06:12:53;;;;;;;4.00;3.60;;;23.40;85.50;;;;;;6214537;28;89230;-72
2023/06/30 06:15:55;;;;;;;4.20;3.80;;;23.40;85.40;;;;;;6204400;28;88261;-72
2023/06/30 06:18:56;;;;;;;5.18;3.97;;;23.40;85.30;;;;;;6208798;28;89750;-73
2023/06/30 06:22:00;;;;;;;6.25;4.10;;;23.40;85.40;;;;;;6207235;28;89058;-73
2023/06/30 06:25:04;;;;;;;5.88;4.13;;;23.40;85.50;;;;;;6205204;28;89951;-73
2023/06/30 06:28:06;;;;;;;4.40;4.00;;;23.40;85.60;;;;;;6205306;28;88964;-73
2023/06/30 06:31:09;;;;;;;5.35;3.97;;;23.40;85.60;;;;;;6210816;28;88998;-71
2023/06/30 06:34:11;;;;;;;4.43;3.83;;;23.40;85.60;;;;;;6196853;28;87721;-71
2023/06/30 06:37:13;;;;;;;5.03;4.07;;;23.40;85.90;;;;;;6198701;28;89019;-73
2023/06/30 06:40:17;;;;;;;7.22;3.90;;;23.40;86.90;;;;;;6195842;28;89085;-73
2023/06/30 06:43:19;;;;;;;4.95;4.28;;;23.40;87.50;;;;;;6207880;28;89095;-73
2023/06/30 06:46:21;;;;;;;4.35;3.95;;;23.40;87.00;;;;;;6207310;28;87246;-73
2023/06/30 06:49:23;;;;;;;6.93;4.05;;;23.50;87.10;;;;;;6207479;28;89005;-73
2023/06/30 06:52:25;;;;;;;5.22;4.13;;;23.50;87.30;;;;;;6208395;28;89096;-73
2023/06/30 06:55:28;;;;;;;4.40;4.00;;;23.40;87.60;;;;;;6206607;28;89969;-72
2023/06/30 06:58:31;;;;;;;4.75;4.00;;;23.40;87.70;;;;;;6213573;28;89101;-73
2023/06/30 07:01:33;;;;;;;4.40;4.00;;;23.50;87.90;;;;;;6209054;28;89134;-73
2023/06/30 07:04:35;;;;;;;4.43;3.78;;;23.50;87.70;;;;;;6208542;28;89096;-74
2023/06/30 07:07:37;;;;;;;5.15;4.00;;;23.50;87.80;;;;;;6206242;28;89615;-72
2023/06/30 07:10:41;;;;;;;4.63;4.10;;;23.50;88.10;;;;;;6205318;28;89104;-72
2023/06/30 07:13:43;;;;;;;5.57;4.28;;;23.50;88.30;;;;;;6205401;28;89231;-72
2023/06/30 07:16:45;;;;;;;4.95;4.28;;;23.50;88.10;;;;;;6209056;28;88668;-72
2023/06/30 07:19:47;;;;;;;5.05;4.55;;;23.50;87.90;;;;;;6210795;28;89073;-73
2023/06/30 07:22:49;;;;;;;6.00;4.25;;;23.50;87.80;;;;;;6197023;28;89153;-73
2023/06/30 07:25:52;;;;;;;6.07;4.30;;;23.50;88.10;;;;;;6203399;28;90098;-73
2023/06/30 07:28:54;;;;;;;4.95;4.55;;;23.50;88.30;;;;;;6205667;28;89114;-73
2023/06/30 07:31:56;;;;;;;6.18;4.65;;;23.50;88.50;;;;;;6204756;28;89139;-73
2023/06/30 07:34:58;;;;;;;5.00;4.50;;;23.50;88.80;;;;;;6203222;28;89307;-73
2023/06/30 07:38:00;;;;;;;7.60;5.15;;;23.50;89.40;;;;;;6203187;28;89385;-73
2023/06/30 07:41:03;;;;;;;5.55;4.55;;;23.50;89.60;;;;;;6195905;28;89087;-73
2023/06/30 07:44:05;;;;;;;5.78;4.80;;;23.50;90.00;;;;;;6214347;28;89087;-73
2023/06/30 07:47:07;;;;;;;5.55;4.60;;;23.50;90.40;;;;;;6206378;28;88336;-73
2023/06/30 07:50:12;;;;;;;6.05;4.80;;;23.50;90.40;;;;;;6208205;28;89019;-73
2023/06/30 07:53:14;;;;;;;5.10;4.53;;;23.40;90.40;;;;;;6204419;28;88993;-74
2023/06/30 07:56:17;;;;;;;6.65;4.72;;;23.50;90.30;;;;;;6197928;28;90060;-75
2023/06/30 07:59:19;;;;;;;4.57;4.18;;;23.50;90.20;;;;;;6184334;28;89083;-75
2023/06/30 08:02:21;;;;;;;4.40;4.00;;;23.60;90.10;;;;;;6203329;28;89038;-75
2023/06/30 08:05:23;;;;;;;5.60;3.95;;;23.50;90.00;;;;;;6218477;28;89140;-75
2023/06/30 08:08:25;;;;;;;4.22;3.83;;;23.60;90.00;;;;;;6213238;28;89010;-74
2023/06/30 08:11:30;;;;;;;5.32;4.00;;;23.60;89.50;;;;;;6208209;28;89387;-75
2023/06/30 08:14:32;;;;;;;5.60;4.68;;;23.60;89.30;;;;;;6219180;28;89086;-74
2023/06/30 08:17:34;;;;;;;4.88;4.40;;;23.60;89.50;;;;;;6198560;28;88212;-75
2023/06/30 08:20:36;;;;;;;4.95;4.13;;;23.60;89.70;;;;;;6202288;28;89040;-76
2023/06/30 08:23:38;;;;;;;5.80;4.10;;;23.60;89.80;;;;;;6206976;28;89032;-75
2023/06/30 08:26:42;;;;;;;4.40;4.00;;;23.60;89.80;;;;;;6210831;28;89925;-75
2023/06/30 08:29:44;;;;;;;4.88;4.20;;;23.60;89.70;;;;;;6191023;28;89053;-74
2023/06/30 08:32:46;;;;;;;4.85;3.90;;;23.60;89.80;;;;;;6200894;28;89041;-74
2023/06/30 08:35:48;;;;;;;6.07;4.45;;;23.60;90.00;;;;;;6199195;28;89094;-75
2023/06/30 08:38:50;;;;;;;4.50;4.10;;;23.60;90.00;;;;;;6207796;28;88281;-73
2023/06/30 08:41:55;;;;;;;4.80;4.20;;;23.60;90.00;;;;;;6206664;28;89099;-74
2023/06/30 08:44:58;;;;;;;5.28;4.15;;;23.60;90.00;;;;;;6195441;28;89356;-74
2023/06/30 08:48:04;;;;;;;4.30;3.90;;;23.60;90.00;;;;;;6195432;28;88363;-74
2023/06/30 08:51:06;;;;;;;4.45;4.00;;;23.60;90.30;;;;;;6204813;28;89090;-74
2023/06/30 08:54:09;;;;;;;4.28;3.88;;;23.60;89.60;;;;;;6223183;28;89417;-74
2023/06/30 08:57:15;;;;;;;4.40;4.00;;;23.60;89.50;;;;;;6214827;28;89987;-74
2023/06/30 09:00:18;;;;;;;4.45;4.05;;;23.60;89.40;;;;;;6219226;28;89114;-74
2023/06/30 09:03:20;;;;;;;6.00;4.60;;;23.70;89.60;;;;;;6208901;28;87969;-74
2023/06/30 09:06:22;;;;;;;4.55;4.10;;;23.70;90.00;;;;;;6194377;28;88919;-74
2023/06/30 09:09:28;;;;;;;4.53;4.13;;;23.70;90.20;;;;;;6204321;28;89116;-74
2023/06/30 09:12:32;;;;;;;4.40;4.00;;;23.70;89.60;;;;;;6200610;28;89333;-73
2023/06/30 09:15:34;;;;;;;4.72;4.30;;;23.70;88.10;;;;;;6197736;28;89139;-74
2023/06/30 09:18:36;;;;;;;5.30;4.45;;;23.70;87.60;;;;;;6201557;28;88706;-73
2023/06/30 09:21:39;;;;;;;5.18;4.07;;;23.70;87.50;;;;;;6200833;28;88820;-74
2023/06/30 09:24:41;;;;;;;4.97;4.30;;;23.70;87.60;;;;;;6215743;28;89003;-74
2023/06/30 09:27:44;;;;;;;4.25;3.85;;;23.70;87.60;;;;;;6210262;28;90012;-74
2023/06/30 09:30:47;;;;;;;4.18;3.80;;;23.70;87.40;;;;;;6202432;28;89123;-73
2023/06/30 09:33:51;;;;;;;4.07;3.75;;;23.70;87.50;;;;;;6200570;28;90676;-74
2023/06/30 09:36:54;;;;;;;5.95;3.90;;;23.70;87.70;;;;;;6190249;28;89053;-73
2023/06/30 09:39:56;;;;;;;4.78;3.70;;;23.70;87.80;;;;;;6204241;28;89278;-73
2023/06/30 09:42:59;;;;;;;5.07;3.90;;;23.70;87.70;;;;;;6195344;28;89170;-72
2023/06/30 09:46:02;;;;;;;5.63;3.95;;;23.70;87.70;;;;;;6203047;28;89076;-72
2023/06/30 09:49:04;;;;;;;5.00;3.80;;;23.70;87.70;;;;;;6193077;28;88403;-72
2023/06/30 09:52:07;;;;;;;4.72;4.03;;;23.70;87.90;;;;;;6200439;28;89700;-72
2023/06/30 09:55:10;;;;;;;5.22;3.83;;;23.70;87.90;;;;;;6199854;28;89119;-72
2023/06/30 09:58:15;;;;;;;4.20;3.78;;;23.70;88.00;;;;;;6196620;28;90458;-72
2023/06/30 10:01:19;;;;;;;5.85;3.90;;;23.70;88.00;;;;;;6213528;28;90094;-73
2023/06/30 10:04:22;;;;;;;4.85;3.90;;;23.70;88.00;;;;;;6200159;28;89027;-72
2023/06/30 10:07:25;;;;;;;4.63;4.10;;;23.70;87.90;;;;;;6185838;28;89170;-71
2023/06/30 10:10:28;;;;;;;5.70;3.80;;;23.70;88.00;;;;;;6196330;28;89110;-75
2023/06/30 10:13:32;;;;;;;12.43;11.13;;;23.70;88.10;;;;;;6207125;28;89158;-72
2023/06/30 10:16:35;;;;;;;677.00;612.85;;;23.70;88.50;;;;;;6191414;28;89107;-74
2023/06/30 10:19:39;;;;;;;1001.22;848.15;;;23.80;90.00;;;;;;6200104;28;87190;-71
2023/06/30 10:22:43;;;;;;;659.58;593.97;;;23.90;90.60;;;;;;6202644;28;89397;-72
2023/06/30 10:25:45;;;;;;;484.17;435.92;;;24.10;89.80;;;;;;6195869;28;89219;-72
2023/06/30 10:28:49;;;;;;;387.35;348.83;;;24.30;88.60;;;;;;6195585;28;90147;-73
2023/06/30 10:31:51;;;;;;;347.20;312.67;;;24.40;87.70;;;;;;6201484;28;88239;-72
2023/06/30 10:34:54;;;;;;;307.55;277.02;;;24.50;88.30;;;;;;6215437;28;89210;-73
2023/06/30 10:37:56;;;;;;;286.33;258.33;;;24.50;88.10;;;;;;6191467;28;89164;-73
2023/06/30 10:41:16;;;;;;;278.63;251.55;;;24.50;87.70;;;;;;6192758;28;89288;-73
2023/06/30 10:44:20;;;;;;;238.07;214.15;;;24.40;87.30;;;;;;6184996;28;89110;-73
2023/06/30 10:47:23;;;;;;;235.30;212.00;;;24.40;87.20;;;;;;6196543;28;89164;-74
2023/06/30 10:50:25;;;;;;;232.57;209.18;;;24.40;87.10;;;;;;6199487;28;90276;-74
2023/06/30 10:53:27;;;;;;;221.20;198.75;;;24.40;87.20;;;;;;6190383;28;88104;-73
2023/06/30 10:56:30;;;;;;;199.13;178.13;;;24.30;87.40;;;;;;6207206;28;89082;-74
2023/06/30 10:59:39;;;;;;;179.85;161.23;;;24.30;87.80;;;;;;6205136;28;90387;-74
2023/06/30 11:02:48;;;;;;;176.20;157.45;;;24.30;88.10;;;;;;6204966;28;89063;-74
2023/06/30 11:05:50;;;;;;;167.50;149.43;;;24.30;88.80;;;;;;6189277;28;88975;-74
2023/06/30 11:09:00;;;;;;;161.52;143.98;;;24.20;89.30;;;;;;6183834;28;89190;-75
2023/06/30 11:12:07;;;;;;;153.85;137.27;;;24.20;89.80;;;;;;6189676;28;89058;-75
2023/06/30 11:15:26;;;;;;;147.00;131.23;;;24.20;89.80;;;;;;6195974;28;89271;-74
2023/06/30 11:18:28;;;;;;;145.77;129.73;;;24.20;89.90;;;;;;6202655;28;88967;-75
2023/06/30 11:21:32;;;;;;;148.82;126.47;;;24.20;90.10;;;;;;6200682;28;88305;-75
2023/06/30 11:24:35;;;;;;;148.98;127.88;;;24.20;90.50;;;;;;6195103;28;89126;-74
2023/06/30 11:27:37;;;;;;;143.00;120.47;;;24.20;91.00;;;;;;6204888;28;89119;-75
2023/06/30 11:30:41;;;;;;;136.40;118.50;;;24.20;91.10;;;;;;6205880;28;90200;-74
2023/06/30 11:33:44;;;;;;;131.43;116.90;;;24.10;91.00;;;;;;6205539;28;89101;-75
2023/06/30 11:36:49;;;;;;;129.77;115.45;;;24.20;90.80;;;;;;6204803;28;89133;-74
2023/06/30 11:39:51;;;;;;;123.95;110.53;;;24.20;90.70;;;;;;6194079;28;89460;-74
2023/06/30 11:42:54;;;;;;;121.00;107.97;;;24.20;90.70;;;;;;6199196;28;89072;-75
2023/06/30 11:45:58;;;;;;;119.53;105.63;;;24.20;90.60;;;;;;6192813;28;89263;-76
2023/06/30 11:49:01;;;;;;;108.55;96.93;;;24.20;90.40;;;;;;6200954;28;89023;-75
2023/06/30 11:52:04;;;;;;;109.82;98.10;;;24.20;90.40;;;;;;6189630;28;87250;-74
2023/06/30 11:55:06;;;;;;;108.07;96.35;;;24.20;90.30;;;;;;6194992;28;88976;-73
2023/06/30 11:58:09;;;;;;;103.55;92.25;;;24.20;90.60;;;;;;6198628;28;89055;-74
2023/06/30 12:01:12;;;;;;;102.05;91.07;;;24.20;91.20;;;;;;6197227;28;89938;-73
2023/06/30 12:04:36;;;;;;;96.47;86.30;;;24.30;95.00;;;;;;6184948;28;89179;-73
2023/06/30 12:07:38;;;;;;;91.25;81.53;;;24.30;93.60;;;;;;6199643;28;89479;-74
2023/06/30 12:10:40;;;;;;;91.10;81.78;;;24.40;92.50;;;;;;6196839;28;89076;-73
2023/06/30 12:13:42;;;;;;;89.50;79.95;;;24.50;91.80;;;;;;6186769;28;89671;-73
2023/06/30 12:16:48;;;;;;;85.28;76.47;;;24.50;91.30;;;;;;6186034;28;89408;-73
2023/06/30 12:19:51;;;;;;;87.43;78.30;;;24.60;90.90;;;;;;6195345;28;89269;-73
2023/06/30 12:22:53;;;;;;;82.43;73.68;;;24.60;90.70;;;;;;6202527;28;88329;-73
2023/06/30 12:25:57;;;;;;;79.50;71.32;;;24.60;90.40;;;;;;6202082;28;89140;-72
2023/06/30 12:29:04;;;;;;;76.65;68.50;;;24.60;90.20;;;;;;6200117;28;87789;-72
2023/06/30 12:32:14;;;;;;;76.60;68.70;;;24.60;90.10;;;;;;6188033;28;90082;-75
2023/06/30 12:35:27;;;;;;;72.63;65.18;;;24.60;90.10;;;;;;6204586;28;89064;-74
2023/06/30 12:38:29;;;;;;;69.93;62.70;;;24.50;90.00;;;;;;6214614;28;87985;-75
2023/06/30 12:41:31;;;;;;;65.28;58.33;;;24.50;90.00;;;;;;6204980;28;88246;-75
2023/06/30 12:44:33;;;;;;;63.03;56.53;;;24.50;90.20;;;;;;6191386;28;89161;-71
2023/06/30 12:47:37;;;;;;;63.88;53.60;;;24.50;90.20;;;;;;6203950;28;89058;-73
2023/06/30 12:50:39;;;;;;;61.35;54.83;;;24.50;90.40;;;;;;6209894;28;88906;-74
2023/06/30 12:53:41;;;;;;;60.67;54.35;;;24.50;90.20;;;;;;6191951;28;89076;-74
2023/06/30 12:56:43;;;;;;;58.83;52.70;;;24.50;90.30;;;;;;6195613;28;89165;-74
2023/06/30 12:59:45;;;;;;;59.85;53.50;;;24.50;90.20;;;;;;6202389;28;89031;-74
2023/06/30 13:02:48;;;;;;;58.22;52.22;;;24.50;90.20;;;;;;6198996;28;90043;-74
2023/06/30 13:05:50;;;;;;;57.08;51.10;;;24.50;90.10;;;;;;6194661;28;89415;-74
2023/06/30 13:08:52;;;;;;;55.72;49.97;;;24.40;90.00;;;;;;6191630;28;89431;-73
2023/06/30 13:11:55;;;;;;;54.63;48.92;;;24.40;90.00;;;;;;6195258;28;89085;-73
2023/06/30 13:14:58;;;;;;;53.63;48.08;;;24.40;90.00;;;;;;6192435;28;89045;-74
2023/06/30 13:18:01;;;;;;;53.53;47.88;;;24.40;90.00;;;;;;6197488;28;89107;-74
2023/06/30 13:21:03;;;;;;;51.70;46.30;;;24.40;89.80;;;;;;6197072;28;89178;-74
2023/06/30 13:24:06;;;;;;;51.17;45.88;;;24.40;89.70;;;;;;6203939;28;88293;-74
2023/06/30 13:27:08;;;;;;;51.28;46.10;;;24.40;89.60;;;;;;6196194;28;88422;-74
2023/06/30 13:30:11;;;;;;;50.17;44.95;;;24.40;89.40;;;;;;6186639;28;89456;-73
2023/06/30 13:33:14;;;;;;;48.55;43.65;;;24.40;89.30;;;;;;6198473;28;89100;-74
2023/06/30 13:36:16;;;;;;;48.33;43.22;;;24.30;89.30;;;;;;6183897;28;87163;-74
2023/06/30 13:39:18;;;;;;;47.42;42.50;;;24.30;89.10;;;;;;6189257;28;89123;-74
2023/06/30 13:42:20;;;;;;;45.65;40.92;;;24.30;89.10;;;;;;6190854;28;89081;-74
2023/06/30 13:45:22;;;;;;;44.58;40.00;;;24.30;89.10;;;;;;6181248;28;89045;-74
2023/06/30 13:48:25;;;;;;;44.85;40.25;;;24.30;88.90;;;;;;6188776;28;89077;-74
2023/06/30 13:51:28;;;;;;;41.03;36.75;;;24.30;88.80;;;;;;6196205;28;89084;-74
2023/06/30 13:54:31;;;;;;;42.30;38.00;;;24.30;88.80;;;;;;6192795;28;88368;-73
2023/06/30 13:57:32;;;;;;;41.78;37.58;;;24.30;88.80;;;;;;6196002;28;89040;-74
2023/06/30 14:00:35;;;;;;;38.83;34.97;;;24.30;88.80;;;;;;6205719;28;89106;-73
2023/06/30 14:03:40;;;;;;;37.47;33.67;;;24.30;88.60;;;;;;6194023;28;90058;-74
2023/06/30 14:06:42;;;;;;;37.72;33.85;;;24.30;88.60;;;;;;6201582;28;89188;-74
2023/06/30 14:09:44;;;;;;;36.58;32.88;;;24.30;88.60;;;;;;6180354;28;89188;-75
2023/06/30 14:12:46;;;;;;;33.33;30.02;;;24.30;88.40;;;;;;6194031;28;89486;-75
2023/06/30 14:15:48;;;;;;;35.28;31.67;;;24.30;88.30;;;;;;6202661;28;89020;-74
2023/06/30 14:18:51;;;;;;;33.72;30.50;;;24.30;88.30;;;;;;6196683;28;89070;-75
2023/06/30 14:21:53;;;;;;;33.47;30.17;;;24.30;88.30;;;;;;6186317;28;89046;-75
2023/06/30 14:24:55;;;;;;;32.78;29.58;;;24.30;88.20;;;;;;6198590;28;88336;-75
2023/06/30 14:27:57;;;;;;;32.05;28.73;;;24.30;88.30;;;;;;6207405;28;89090;-75
2023/06/30 14:30:59;;;;;;;31.73;28.52;;;24.30;88.30;;;;;;6208887;28;89072;-75
2023/06/30 14:34:03;;;;;;;31.15;28.15;;;24.30;88.30;;;;;;6208672;28;89005;-76
2023/06/30 14:37:05;;;;;;;30.95;27.95;;;24.30;88.30;;;;;;6208379;28;88969;-75
2023/06/30 14:40:08;;;;;;;30.70;27.73;;;24.30;88.30;;;;;;6207384;28;89060;-75
2023/06/30 14:43:10;;;;;;;30.02;27.02;;;24.30;88.30;;;;;;6199465;28;89112;-75
2023/06/30 14:46:12;;;;;;;28.52;25.83;;;24.20;88.30;;;;;;6184015;28;89044;-75
2023/06/30 14:49:15;;;;;;;28.13;25.42;;;24.30;88.30;;;;;;6193398;28;88995;-75
2023/06/30 14:52:17;;;;;;;28.50;25.58;;;24.30;88.40;;;;;;6194390;28;89088;-76
2023/06/30 14:55:19;;;;;;;27.45;24.77;;;24.30;88.30;;;;;;6197549;28;88482;-76
2023/06/30 14:58:21;;;;;;;27.08;24.35;;;24.30;88.10;;;;;;6194264;28;89081;-75
2023/06/30 15:01:23;;;;;;;26.60;23.90;;;24.30;88.10;;;;;;6202602;28;89264;-75
2023/06/30 15:04:27;;;;;;;28.80;26.00;;;24.30;88.10;;;;;;6183131;28;90360;-76
2023/06/30 15:07:29;;;;;;;27.52;24.83;;;24.30;88.00;;;;;;6204334;28;89108;-75
2023/06/30 15:10:31;;;;;;;26.83;24.13;;;24.30;88.00;;;;;;6189670;28;89395;-76
2023/06/30 15:13:33;;;;;;;26.45;23.85;;;24.30;87.90;;;;;;6203908;28;88492;-75
2023/06/30 15:16:37;;;;;;;26.27;23.77;;;24.30;88.00;;;;;;6189677;28;88994;-76
2023/06/30 15:19:41;;;;;;;25.65;23.15;;;24.30;87.90;;;;;;6203979;28;89393;-77
2023/06/30 15:22:43;;;;;;;25.88;23.35;;;24.30;87.80;;;;;;6205457;28;89517;-77
2023/06/30 15:25:45;;;;;;;25.15;22.70;;;24.30;87.80;;;;;;6197934;28;88676;-76
2023/06/30 15:28:47;;;;;;;25.55;23.13;;;24.20;87.70;;;;;;6193414;28;89077;-77
2023/06/30 15:31:49;;;;;;;24.55;22.05;;;24.30;87.80;;;;;;6195625;28;89293;-76
2023/06/30 15:34:52;;;;;;;23.52;21.33;;;24.30;87.90;;;;;;6205760;28;90286;-77
2023/06/30 15:37:55;;;;;;;23.90;21.58;;;24.30;88.00;;;;;;6195024;28;89118;-76
2023/06/30 15:40:57;;;;;;;24.23;21.83;;;24.30;88.10;;;;;;6182906;28;88989;-77